createdAt,value
2019-02-08T00:00:39.046Z,64.77
2019-02-08T00:03:07.801Z,71.87
2019-02-08T00:05:36.519Z,61.97
2019-02-08T00:08:06.128Z,72.30
2019-02-08T00:10:36.490Z,59.40
2019-02-08T00:13:05.427Z,69.93
2019-02-08T00:15:34.237Z,64.67
2019-02-08T00:18:03.701Z,68.63
2019-02-08T00:20:32.859Z,66.63
2019-02-08T00:25:37.189Z,66.80
2019-02-08T00:28:07.326Z,71.00
2019-02-08T00:30:36.631Z,70.40
2019-02-08T00:33:06.182Z,65.43
2019-02-08T00:35:54.316Z,68.87
2019-02-08T00:38:28.094Z,67.97
2019-02-08T00:40:57.206Z,72.93
2019-02-08T00:43:26.650Z,64.93
2019-02-08T00:45:55.275Z,65.60
2019-02-08T00:48:24.142Z,77.73
2019-02-08T00:50:53.547Z,60.47
2019-02-08T00:53:22.490Z,67.97
2019-02-08T00:55:51.139Z,62.20
2019-02-08T00:58:19.884Z,63.53
2019-02-08T01:00:49.002Z,76.20
2019-02-08T01:03:18.680Z,62.73
2019-02-08T01:05:47.883Z,65.63
2019-02-08T01:08:16.624Z,58.70
2019-02-08T01:10:45.487Z,70.00
2019-02-08T01:13:14.260Z,70.43
2019-02-08T01:15:42.897Z,71.20
2019-02-08T01:18:12.330Z,67.57
2019-02-08T01:20:41.143Z,66.67
2019-02-08T01:23:09.891Z,68.70
2019-02-08T01:25:38.936Z,77.10
2019-02-08T01:28:07.684Z,83.97
2019-02-08T01:30:36.427Z,83.77
2019-02-08T01:33:05.372Z,181.60
2019-02-08T01:35:34.097Z,236.47
2019-02-08T01:38:02.857Z,254.47
2019-02-08T01:40:34.240Z,239.73
2019-02-08T01:43:03.965Z,220.53
2019-02-08T01:45:33.586Z,190.47
2019-02-08T01:48:02.429Z,277.17
2019-02-08T01:50:31.960Z,160.73
2019-02-08T01:53:01.131Z,198.47
2019-02-08T01:55:29.860Z,257.17
2019-02-08T01:57:58.704Z,145.50
2019-02-08T02:00:30.370Z,155.73
2019-02-08T02:02:59.531Z,104.07
2019-02-08T02:05:28.256Z,83.40
2019-02-08T02:07:56.869Z,85.87
2019-02-08T02:10:40.260Z,73.70
2019-02-08T02:13:09.343Z,71.00
2019-02-08T02:15:38.031Z,73.30
2019-02-08T02:18:07.640Z,61.37
2019-02-08T02:20:41.586Z,62.97
2019-02-08T02:23:11.665Z,59.53
2019-02-08T02:25:40.478Z,72.27
2019-02-08T02:28:09.491Z,64.07
2019-02-08T02:30:38.331Z,50.10
2019-02-08T02:33:32.343Z,50.67
2019-02-08T02:36:01.068Z,56.03
2019-02-08T02:38:29.678Z,53.33
2019-02-08T02:40:58.338Z,55.93
2019-02-08T02:43:27.082Z,56.60
2019-02-08T02:45:55.796Z,59.73
2019-02-08T02:48:24.522Z,55.87
2019-02-08T02:50:53.269Z,51.83
2019-02-08T02:53:21.984Z,50.17
2019-02-08T02:55:50.655Z,55.67
2019-02-08T02:58:19.385Z,56.30
2019-02-08T03:00:48.232Z,56.30
2019-02-08T03:03:16.947Z,54.60
2019-02-08T03:05:46.195Z,51.07
2019-02-08T03:08:15.613Z,54.97
2019-02-08T03:10:44.460Z,52.57
2019-02-08T03:13:14.180Z,49.30
2019-02-08T03:15:42.935Z,47.00
2019-02-08T03:18:11.647Z,56.93
2019-02-08T03:20:40.388Z,52.13
2019-02-08T03:23:09.103Z,47.33
2019-02-08T03:25:37.855Z,52.30
2019-02-08T03:28:06.580Z,50.57
2019-02-08T03:30:43.082Z,58.80
2019-02-08T03:33:11.818Z,61.87
2019-02-08T03:35:40.556Z,50.47
2019-02-08T03:38:09.279Z,55.50
2019-02-08T03:40:38.031Z,66.33
2019-02-08T03:43:08.162Z,60.13
2019-02-08T03:45:38.889Z,99.43
2019-02-08T03:48:07.983Z,92.30
2019-02-08T03:50:36.736Z,68.53
2019-02-08T03:53:06.446Z,67.00
2019-02-08T03:55:35.300Z,75.90
2019-02-08T03:58:05.015Z,67.77
2019-02-08T04:00:36.009Z,63.73
2019-02-08T04:03:04.922Z,66.33
2019-02-08T04:05:34.172Z,66.63
2019-02-08T04:08:02.888Z,65.20
2019-02-08T04:10:31.571Z,71.00
2019-02-08T04:13:00.285Z,61.00
2019-02-08T04:15:28.956Z,55.40
2019-02-08T04:17:57.685Z,65.90
2019-02-08T04:20:26.999Z,59.57
2019-02-08T04:22:58.641Z,55.13
2019-02-08T04:25:27.431Z,56.07
2019-02-08T04:27:56.211Z,53.37
2019-02-08T04:30:30.094Z,61.30
2019-02-08T04:33:00.711Z,54.37
2019-02-08T04:35:29.464Z,47.87
2019-02-08T04:37:58.183Z,59.13
2019-02-08T04:40:28.431Z,55.33
2019-02-08T04:42:57.245Z,48.80
2019-02-08T04:45:26.099Z,47.63
2019-02-08T04:47:54.800Z,57.53
2019-02-08T04:50:24.845Z,50.40
2019-02-08T04:52:54.001Z,54.43
2019-02-08T04:55:22.722Z,48.57
2019-02-08T04:57:51.481Z,53.50
2019-02-08T05:00:28.204Z,49.80
2019-02-08T05:02:57.015Z,51.80
2019-02-08T05:05:25.868Z,51.60
2019-02-08T05:07:54.594Z,52.67
2019-02-08T05:10:31.836Z,51.43
2019-02-08T05:13:00.761Z,51.03
2019-02-08T05:15:29.511Z,61.50
2019-02-08T05:17:58.227Z,59.90
2019-02-08T05:20:31.633Z,70.13
2019-02-08T05:23:00.756Z,50.70
2019-02-08T05:25:29.500Z,52.57
2019-02-08T05:27:58.215Z,57.40
2019-02-08T05:30:36.581Z,65.93
2019-02-08T05:33:06.497Z,64.50
2019-02-08T05:35:35.283Z,60.47
2019-02-08T05:38:04.401Z,55.57
2019-02-08T05:40:33.171Z,60.63
2019-02-08T05:43:01.892Z,69.20
2019-02-08T05:45:30.605Z,73.83
2019-02-08T05:47:59.290Z,77.27
2019-02-08T05:50:29.199Z,91.90
2019-02-08T05:52:58.261Z,89.97
2019-02-08T05:55:50.598Z,121.90
2019-02-08T05:58:19.313Z,114.50
2019-02-08T06:00:49.671Z,165.63
2019-02-08T06:03:18.420Z,137.13
2019-02-08T06:05:47.200Z,134.30
2019-02-08T06:08:16.088Z,122.03
2019-02-08T06:10:44.811Z,101.83
2019-02-08T06:13:13.552Z,88.27
2019-02-08T06:16:01.537Z,93.47
2019-02-08T06:18:30.297Z,67.63
2019-02-08T06:20:58.869Z,88.33
2019-02-08T06:23:27.617Z,78.23
2019-02-08T06:25:56.328Z,86.47
2019-02-08T06:28:25.024Z,85.77
2019-02-08T06:30:53.676Z,74.63
2019-02-08T06:33:22.445Z,64.43
2019-02-08T06:35:51.100Z,66.67
2019-02-08T06:38:19.713Z,59.97
2019-02-08T06:40:48.443Z,80.60
2019-02-08T06:43:17.182Z,68.13
2019-02-08T06:45:45.896Z,76.97
2019-02-08T06:48:14.753Z,83.10
2019-02-08T06:50:43.468Z,89.37
2019-02-08T06:53:12.222Z,106.87
2019-02-08T06:55:40.945Z,99.80
2019-02-08T06:58:24.562Z,112.43
2019-02-08T07:01:17.136Z,128.80
2019-02-08T07:03:47.537Z,115.67
2019-02-08T07:06:34.574Z,123.63
2019-02-08T07:09:09.152Z,112.87
2019-02-08T07:11:57.570Z,140.93
2019-02-08T07:14:27.975Z,129.50
2019-02-08T07:16:58.264Z,130.73
2019-02-08T07:19:40.629Z,147.83
2019-02-08T07:22:23.257Z,134.40
2019-02-08T07:24:53.648Z,123.37
2019-02-08T07:27:36.032Z,119.30
2019-02-08T07:30:24.608Z,145.07
2019-02-08T07:33:04.012Z,130.77
2019-02-08T07:35:49.729Z,148.97
2019-02-08T07:38:26.247Z,143.63
2019-02-08T07:40:58.715Z,138.90
2019-02-08T07:43:32.043Z,139.07
2019-02-08T07:46:04.909Z,125.00
2019-02-08T07:48:39.081Z,145.43
2019-02-08T07:51:09.452Z,151.97
2019-02-08T07:53:39.949Z,127.67
2019-02-08T07:56:19.161Z,137.93
2019-02-08T07:58:55.515Z,120.60
2019-02-08T08:01:28.799Z,118.97
2019-02-08T08:04:08.089Z,102.63
2019-02-08T08:06:42.142Z,94.33
2019-02-08T08:09:12.715Z,88.00
2019-02-08T08:11:43.480Z,81.50
2019-02-08T08:14:23.567Z,76.10
2019-02-08T08:17:06.038Z,83.93
2019-02-08T08:20:04.721Z,70.93
2019-02-08T08:22:38.419Z,66.53
2019-02-08T08:25:19.430Z,58.67
2019-02-08T08:28:06.259Z,47.20
2019-02-08T08:30:53.228Z,56.53
2019-02-08T08:33:59.045Z,56.97
2019-02-08T08:36:36.576Z,55.40
2019-02-08T08:39:32.116Z,55.17
2019-02-08T08:42:25.877Z,60.10
2019-02-08T08:45:06.233Z,59.73
2019-02-08T08:47:46.968Z,71.83
2019-02-08T08:50:44.047Z,69.30
2019-02-08T08:53:18.655Z,76.73
2019-02-08T08:56:07.066Z,58.73
2019-02-08T08:59:05.492Z,55.90
2019-02-08T09:01:48.955Z,51.60
2019-02-08T09:04:32.623Z,58.73
2019-02-08T09:07:07.112Z,42.47
2019-02-08T09:10:01.225Z,44.07
2019-02-08T09:12:39.020Z,43.17
2019-02-08T09:15:13.680Z,41.37
2019-02-08T09:17:54.452Z,45.70
2019-02-08T09:20:34.888Z,46.80
2019-02-08T09:23:29.238Z,49.70
2019-02-08T09:26:18.717Z,59.77
2019-02-08T09:29:06.963Z,49.27
2019-02-08T09:32:01.208Z,43.80
2019-02-08T09:34:49.634Z,39.80
2019-02-08T09:37:36.472Z,31.30
2019-02-08T09:40:38.639Z,37.93
2019-02-08T09:43:10.299Z,37.37
2019-02-08T09:46:04.842Z,65.33
2019-02-08T09:48:53.128Z,58.97
2019-02-08T09:51:47.008Z,25.80
2019-02-08T09:54:16.167Z,54.73
2019-02-08T09:56:51.626Z,48.90
2019-02-08T09:59:56.457Z,24.27
2019-02-08T10:02:50.866Z,27.40
2019-02-08T10:05:38.909Z,19.43
2019-02-08T10:08:27.029Z,19.07
2019-02-08T10:11:24.468Z,23.67
2019-02-08T10:14:29.557Z,16.20
2019-02-08T10:17:17.748Z,13.43
2019-02-08T10:20:35.877Z,15.20
2019-02-08T10:23:28.924Z,17.77
2019-02-08T10:26:17.128Z,15.70
2019-02-08T10:29:20.576Z,17.07
2019-02-08T10:32:10.053Z,14.37
2019-02-08T10:35:08.933Z,13.43
2019-02-08T10:37:57.222Z,16.30
2019-02-08T10:40:46.909Z,12.77
2019-02-08T10:43:30.676Z,12.17
2019-02-08T10:46:08.355Z,22.80
2019-02-08T10:48:45.314Z,14.50
2019-02-08T10:51:49.765Z,10.13
2019-02-08T10:54:43.548Z,11.57
2019-02-08T10:57:29.641Z,9.97
2019-02-08T11:00:17.894Z,8.20
2019-02-08T11:03:06.271Z,10.60
2019-02-08T11:06:10.001Z,13.57
2019-02-08T11:08:56.488Z,9.90
2019-02-08T11:11:43.337Z,14.37
2019-02-08T11:14:43.572Z,10.30
2019-02-08T11:17:20.763Z,9.13
2019-02-08T11:19:56.764Z,10.90
2019-02-08T11:22:25.681Z,9.07
2019-02-08T11:24:54.433Z,10.83
2019-02-08T11:27:23.339Z,9.37
2019-02-08T11:29:52.078Z,6.37
2019-02-08T11:32:20.789Z,7.43
2019-02-08T11:34:49.473Z,7.40
2019-02-08T11:37:18.352Z,7.97
2019-02-08T11:39:47.174Z,6.67
2019-02-08T11:42:15.882Z,7.30
2019-02-08T11:44:44.715Z,12.03
2019-02-08T11:47:13.422Z,7.80
2019-02-08T11:49:42.197Z,10.83
2019-02-08T11:52:10.888Z,10.40
2019-02-08T11:54:39.491Z,9.23
2019-02-08T11:57:08.210Z,11.27
2019-02-08T11:59:36.875Z,12.73
2019-02-08T12:02:05.688Z,9.70
2019-02-08T12:04:34.356Z,12.30
2019-02-08T12:07:03.082Z,25.87
2019-02-08T12:09:31.917Z,9.97
2019-02-08T12:12:00.499Z,10.50
2019-02-08T12:14:30.568Z,17.97
2019-02-08T12:16:59.363Z,12.37
2019-02-08T12:19:27.955Z,14.77
2019-02-08T12:21:56.687Z,16.57
2019-02-08T12:24:25.339Z,12.07
2019-02-08T12:26:54.001Z,12.10
2019-02-08T12:29:22.720Z,10.33
2019-02-08T12:31:51.406Z,11.93
2019-02-08T12:34:20.122Z,14.63
2019-02-08T12:36:48.856Z,7.00
2019-02-08T12:39:17.495Z,6.73
2019-02-08T12:41:46.162Z,5.57
2019-02-08T12:44:14.872Z,6.80
2019-02-08T12:46:43.607Z,9.23
2019-02-08T12:49:12.320Z,6.77
2019-02-08T12:51:41.056Z,7.63
2019-02-08T12:54:09.770Z,7.53
2019-02-08T12:56:45.172Z,8.73
2019-02-08T12:59:08.882Z,8.13
2019-02-08T13:01:38.024Z,7.93
2019-02-08T13:04:06.727Z,10.23
2019-02-08T13:06:35.545Z,12.17
2019-02-08T13:09:05.723Z,6.10
2019-02-08T13:11:34.458Z,16.20
2019-02-08T13:14:03.106Z,9.53
2019-02-08T13:16:31.780Z,11.47
2019-02-08T13:19:00.347Z,6.03
2019-02-08T13:21:29.029Z,14.17
2019-02-08T13:23:57.587Z,6.60
2019-02-08T13:26:26.324Z,15.57
2019-02-08T13:28:54.901Z,11.63
2019-02-08T13:31:23.593Z,7.83
2019-02-08T13:34:35.640Z,14.83
2019-02-08T13:36:29.888Z,33.87
2019-02-08T13:38:58.881Z,14.37
2019-02-08T13:41:28.177Z,15.40
2019-02-08T13:43:59.286Z,19.43
2019-02-08T13:46:27.931Z,22.90
2019-02-08T13:48:56.680Z,19.00
2019-02-08T13:51:25.392Z,13.70
2019-02-08T13:53:54.150Z,6.90
2019-02-08T13:56:23.343Z,9.77
2019-02-08T13:58:52.085Z,7.00
2019-02-08T14:01:21.152Z,12.17
2019-02-08T14:03:51.281Z,7.67
2019-02-08T14:06:20.641Z,9.97
2019-02-08T14:08:50.164Z,12.73
2019-02-08T14:11:19.858Z,14.37
2019-02-08T14:13:48.519Z,8.20
2019-02-08T14:16:17.255Z,8.20
2019-02-08T14:18:46.019Z,24.10
2019-02-08T14:21:15.337Z,13.53
2019-02-08T14:23:43.977Z,13.33
2019-02-08T14:26:13.684Z,19.77
2019-02-08T14:28:43.373Z,10.90
2019-02-08T14:31:12.105Z,7.33
2019-02-08T14:33:41.425Z,17.33
2019-02-08T14:36:10.778Z,14.30
2019-02-08T14:38:39.775Z,16.20
2019-02-08T14:41:08.968Z,24.30
2019-02-08T14:43:37.617Z,34.23
2019-02-08T14:46:06.436Z,20.90
2019-02-08T14:48:35.181Z,18.03
2019-02-08T14:51:03.893Z,14.70
2019-02-08T14:53:32.499Z,25.53
2019-02-08T14:56:01.228Z,27.27
2019-02-08T14:58:29.967Z,74.30
2019-02-08T15:00:58.714Z,111.17
2019-02-08T15:03:27.358Z,23.63
2019-02-08T15:05:56.079Z,36.43
2019-02-08T15:08:24.756Z,30.47
2019-02-08T15:10:53.403Z,39.43
2019-02-08T15:13:22.069Z,21.40
2019-02-08T15:15:50.635Z,17.53
2019-02-08T15:18:19.330Z,16.73
2019-02-08T15:20:48.047Z,17.80
2019-02-08T15:23:16.756Z,28.43
2019-02-08T15:25:45.495Z,60.70
2019-02-08T15:28:14.081Z,42.73
2019-02-08T15:30:42.827Z,287.80
2019-02-08T15:33:11.468Z,461.27
2019-02-08T15:35:40.211Z,83.47
2019-02-08T15:38:08.931Z,23.80
2019-02-08T15:40:43.221Z,12.73
2019-02-08T15:43:13.736Z,14.43
2019-02-08T15:45:45.086Z,13.67
2019-02-08T15:48:13.736Z,13.87
2019-02-08T15:50:42.488Z,15.93
2019-02-08T15:53:11.193Z,12.07
2019-02-08T15:55:42.998Z,11.60
2019-02-08T15:58:11.818Z,18.37
2019-02-08T16:00:40.631Z,20.67
2019-02-08T16:03:10.554Z,17.30
2019-02-08T16:05:39.398Z,17.00
2019-02-08T16:08:08.117Z,19.27
2019-02-08T16:10:36.783Z,17.67
2019-02-08T16:13:06.309Z,18.70
2019-02-08T16:15:35.052Z,18.73
2019-02-08T16:18:04.058Z,18.43
2019-02-08T16:20:32.732Z,14.60
2019-02-08T16:23:01.643Z,18.73
2019-02-08T16:25:32.053Z,19.63
2019-02-08T16:28:00.757Z,15.10
2019-02-08T16:30:34.852Z,17.57
2019-02-08T16:33:04.062Z,22.47
2019-02-08T16:35:32.903Z,17.97
2019-02-08T16:38:01.616Z,23.87
2019-02-08T16:40:30.674Z,21.57
2019-02-08T16:42:59.673Z,19.93
2019-02-08T16:45:30.619Z,22.93
2019-02-08T16:48:00.240Z,21.97
2019-02-08T16:50:30.783Z,35.57
2019-02-08T16:52:59.500Z,43.60
2019-02-08T16:55:28.247Z,53.33
2019-02-08T16:57:57.082Z,52.83
2019-02-08T17:00:28.296Z,43.73
2019-02-08T17:02:59.015Z,40.23
2019-02-08T17:05:29.141Z,38.23
2019-02-08T17:07:57.892Z,34.20
2019-02-08T17:10:26.615Z,42.23
2019-02-08T17:12:55.359Z,51.77
2019-02-08T17:15:29.390Z,53.87
2019-02-08T17:17:58.231Z,71.07
2019-02-08T17:20:29.893Z,103.37
2019-02-08T17:22:58.645Z,123.10
2019-02-08T17:25:27.458Z,136.47
2019-02-08T17:27:56.248Z,124.37
2019-02-08T17:30:25.380Z,119.00
2019-02-08T17:32:54.119Z,64.07
2019-02-08T17:35:24.832Z,46.63
2019-02-08T17:37:53.576Z,30.33
2019-02-08T17:40:27.594Z,33.90
2019-02-08T17:42:56.277Z,26.07
2019-02-08T17:45:24.999Z,25.47
2019-02-08T17:47:54.647Z,26.87
2019-02-08T17:50:27.724Z,33.50
2019-02-08T17:52:56.467Z,31.37
2019-02-08T17:55:44.453Z,33.17
2019-02-08T17:58:13.134Z,59.77
2019-02-08T18:01:03.756Z,58.63
2019-02-08T18:03:32.542Z,55.70
2019-02-08T18:06:01.202Z,49.70
2019-02-08T18:08:29.869Z,51.83
2019-02-08T18:10:58.515Z,53.90
2019-02-08T18:13:27.191Z,46.77
2019-02-08T18:15:55.907Z,33.30
2019-02-08T18:18:24.984Z,41.10
2019-02-08T18:20:56.297Z,47.83
2019-02-08T18:23:25.040Z,40.63
2019-02-08T18:25:53.751Z,32.13
2019-02-08T18:28:22.430Z,36.57
2019-02-08T18:30:51.195Z,32.97
2019-02-08T18:33:19.903Z,37.80
2019-02-08T18:35:48.625Z,44.97
2019-02-08T18:38:17.304Z,45.47
2019-02-08T18:40:46.023Z,40.10
2019-02-08T18:43:15.240Z,35.27
2019-02-08T18:45:44.059Z,37.43
2019-02-08T18:48:13.071Z,33.37
2019-02-08T18:50:44.709Z,32.37
2019-02-08T18:53:13.455Z,35.63
2019-02-08T18:55:42.185Z,38.67
2019-02-08T18:58:18.511Z,34.20
2019-02-08T19:00:50.516Z,47.30
2019-02-08T19:03:19.789Z,41.07
2019-02-08T19:05:48.513Z,33.47
2019-02-08T19:08:22.918Z,34.53
2019-02-08T19:10:53.159Z,47.07
2019-02-08T19:13:22.150Z,52.87
2019-02-08T19:15:50.944Z,40.37
2019-02-08T19:18:20.359Z,37.93
2019-02-08T19:20:49.107Z,39.97
2019-02-08T19:23:18.241Z,39.17
2019-02-08T19:25:47.080Z,33.40
2019-02-08T19:28:17.879Z,32.97
2019-02-08T19:30:46.595Z,41.83
2019-02-08T19:33:15.799Z,38.63
2019-02-08T19:35:44.548Z,38.57
2019-02-08T19:38:15.418Z,44.33
2019-02-08T19:40:48.068Z,39.87
2019-02-08T19:43:20.088Z,38.23
2019-02-08T19:45:48.836Z,47.53
2019-02-08T19:48:21.680Z,35.07
2019-02-08T19:50:50.499Z,38.33
2019-02-08T19:53:20.622Z,36.33
2019-02-08T19:55:49.424Z,33.50
2019-02-08T19:58:18.361Z,35.23
2019-02-08T20:00:47.663Z,46.33
2019-02-08T20:03:16.478Z,40.20
2019-02-08T20:05:45.782Z,44.80
2019-02-08T20:08:14.908Z,43.40
2019-02-08T20:10:47.453Z,44.83
2019-02-08T20:13:16.228Z,38.90
2019-02-08T20:15:45.688Z,43.60
2019-02-08T20:18:14.836Z,39.47
2019-02-08T20:20:43.681Z,34.23
2019-02-08T20:23:12.492Z,39.43
2019-02-08T20:25:41.337Z,35.23
2019-02-08T20:28:10.258Z,33.50
2019-02-08T20:30:42.933Z,30.30
2019-02-08T20:33:11.693Z,36.00
2019-02-08T20:35:41.247Z,37.37
2019-02-08T20:38:10.369Z,37.67
2019-02-08T20:40:42.205Z,34.03
2019-02-08T20:43:11.657Z,31.53
2019-02-08T20:45:42.046Z,28.43
2019-02-08T20:48:16.185Z,28.90
2019-02-08T20:50:45.599Z,32.57
2019-02-08T20:53:14.361Z,40.73
2019-02-08T20:55:43.433Z,36.10
2019-02-08T20:58:13.292Z,38.90
2019-02-08T21:00:45.780Z,41.80
2019-02-08T21:03:14.750Z,34.50
2019-02-08T21:05:44.721Z,31.83
2019-02-08T21:08:13.917Z,32.90
2019-02-08T21:10:48.198Z,31.13
2019-02-08T21:13:17.053Z,32.93
2019-02-08T21:15:51.486Z,27.13
2019-02-08T21:18:39.575Z,28.50
2019-02-08T21:21:08.510Z,35.83
2019-02-08T21:23:37.251Z,37.27
2019-02-08T21:26:08.233Z,36.70
2019-02-08T21:28:37.023Z,40.13
2019-02-08T21:31:07.312Z,38.77
2019-02-08T21:33:36.183Z,33.33
2019-02-08T21:36:09.730Z,40.93
2019-02-08T21:38:38.748Z,39.20
2019-02-08T21:41:08.661Z,38.77
2019-02-08T21:43:37.526Z,44.40
2019-02-08T21:46:11.707Z,39.17
2019-02-08T21:48:40.361Z,50.87
2019-02-08T21:51:09.377Z,51.27
2019-02-08T21:53:38.256Z,44.53
2019-02-08T21:56:11.129Z,47.33
2019-02-08T21:58:39.929Z,51.57
2019-02-08T22:01:08.915Z,54.67
2019-02-08T22:03:37.895Z,52.67
2019-02-08T22:06:08.609Z,49.63
2019-02-08T22:08:37.456Z,51.07
2019-02-08T22:11:10.020Z,48.03
2019-02-08T22:13:38.728Z,45.97
2019-02-08T22:16:07.677Z,42.03
2019-02-08T22:18:36.758Z,39.57
2019-02-08T22:21:05.844Z,39.93
2019-02-08T22:23:34.653Z,40.70
2019-02-08T22:26:06.749Z,43.60
2019-02-08T22:28:35.710Z,48.17
2019-02-08T22:31:07.143Z,42.63
2019-02-08T22:33:35.994Z,48.97
2019-02-08T22:36:12.280Z,47.30
2019-02-08T22:38:41.073Z,49.67
2019-02-08T22:41:16.220Z,44.93
2019-02-08T22:43:46.731Z,47.03
2019-02-08T22:46:15.486Z,40.70
2019-02-08T22:48:46.363Z,48.57
2019-02-08T22:51:15.174Z,51.50
2019-02-08T22:53:44.773Z,45.57
2019-02-08T22:56:21.582Z,42.40
2019-02-08T22:58:50.255Z,44.87
2019-02-08T23:01:26.789Z,43.67
2019-02-08T23:03:57.040Z,46.17
2019-02-08T23:06:25.988Z,47.87
2019-02-08T23:08:58.088Z,51.40
2019-02-08T23:11:27.429Z,56.83
2019-02-08T23:14:00.685Z,40.50
2019-02-08T23:16:29.520Z,48.07
2019-02-08T23:18:58.426Z,48.03
2019-02-08T23:21:27.277Z,50.20
2019-02-08T23:23:58.708Z,47.00
2019-02-08T23:26:27.493Z,54.03
2019-02-08T23:31:30.795Z,50.90
2019-02-08T23:34:05.555Z,47.93
2019-02-08T23:36:34.776Z,52.40
2019-02-08T23:39:05.207Z,48.77
2019-02-08T23:41:34.041Z,51.00
2019-02-08T23:44:07.972Z,43.37
2019-02-08T23:46:36.941Z,51.33
2019-02-08T23:49:09.758Z,52.43
2019-02-08T23:51:38.647Z,54.70
2019-02-08T23:54:07.560Z,60.37
2019-02-08T23:56:36.347Z,54.37
2019-02-08T23:59:06.148Z,51.77
